Time;durP1;ratioP1;P1;durP2;ratioP2;P2;SDS_P1;SDS_P2;PMS_P1;PMS_P2;Temp;Humidity;BMP_temperature;BMP_pressure;BME280_temperature;BME280_humidity;BME280_pressure;Samples;Min_cycle;Max_cycle;Signal;HPM_P1;HPM_P2
2023/04/05 00:05:54;;;;;;;38.60;19.70;;;;;;;-0.79;61.20;100993.75;125838;1304;635195;-68
2023/04/05 00:09:57;;;;;;;40.80;19.90;;;;;;;-0.92;61.00;100993.98;128190;1291;126470;-70
2023/04/05 00:13:58;;;;;;;38.30;19.10;;;;;;;-1.02;61.15;100993.54;126940;1290;115291;-66
2023/04/05 00:18:02;;;;;;;36.90;18.00;;;;;;;-1.13;61.11;100994.49;122718;1296;5436298;-70
2023/04/05 00:22:02;;;;;;;41.50;17.20;;;;;;;-1.26;61.21;100989.48;124492;1312;115322;-70
2023/04/05 00:30:02;;;;;;;40.00;18.70;;;;;;;-1.45;61.73;100984.31;125952;1306;637616;-67
2023/04/05 00:38:07;;;;;;;43.90;19.20;;;;;;;-1.69;61.85;100981.29;128831;1280;115367;-69
2023/04/05 00:42:08;;;;;;;46.90;20.30;;;;;;;-1.80;62.15;100980.47;123713;1286;5448073;-68
2023/04/05 00:50:42;;;;;;;43.30;20.40;;;;;;;-1.98;61.94;100987.59;125689;1305;637930;-72
2023/04/05 00:54:46;;;;;;;40.10;19.40;;;;;;;-2.10;62.46;100983.41;127762;1284;127751;-71
2023/04/05 01:02:52;;;;;;;51.80;21.40;;;;;;;-2.27;62.30;100979.48;122427;1301;5412268;-68
2023/04/05 01:14:46;;;;;;;;;;;;;;;;;;;;;
2023/04/05 01:23:41;;;;;;;47.20;22.30;;;;;;;-2.62;63.27;100967.80;125725;1301;638616;-70
2023/04/05 01:27:53;;;;;;;43.00;20.70;;;;;;;-2.70;63.41;100964.69;128713;1287;126281;-69
2023/04/05 01:36:22;;;;;;;43.80;18.90;;;;;;;-2.84;63.80;100961.00;124735;1273;5417194;-72
2023/04/05 01:40:25;;;;;;;51.00;20.90;;;;;;;-2.90;63.76;100961.61;128328;1298;114928;-72
2023/04/05 01:44:28;;;;;;;46.70;20.20;;;;;;;-2.96;64.10;100956.77;127764;1293;114948;-69
2023/04/05 01:48:29;;;;;;;42.10;17.60;;;;;;;-3.01;64.19;100958.80;126588;1304;114795;-72
2023/04/05 01:52:21;;;;;;;44.50;20.10;;;;;;;-3.07;64.25;100959.39;125811;1320;129876;-72
2023/04/05 02:04:57;;;;;;;54.90;23.10;;;;;;;-3.16;64.77;100958.19;125808;1301;639855;-69
2023/04/05 02:08:49;;;;;;;52.60;24.00;;;;;;;-3.23;65.12;100952.14;127722;1294;129135;-71
2023/04/05 02:12:52;;;;;;;59.70;26.60;;;;;;;-3.25;65.24;100948.96;127424;1290;116437;-67
2023/04/05 02:20:58;;;;;;;71.10;29.70;;;;;;;-3.30;65.41;100939.26;125781;1302;114912;-73
2023/04/05 02:29:31;;;;;;;68.30;32.00;;;;;;;-3.31;65.59;100929.46;125427;1304;640053;-68
2023/04/05 02:33:34;;;;;;;75.80;32.20;;;;;;;-3.35;65.77;100925.20;128757;1295;127915;-69
2023/04/05 02:37:36;;;;;;;75.10;31.40;;;;;;;-3.35;65.93;100926.07;128488;1281;115252;-69
2023/04/05 02:41:40;;;;;;;70.50;29.90;;;;;;;-3.37;66.26;100917.31;123542;1286;5445304;-68
2023/04/05 02:45:42;;;;;;;70.40;29.70;;;;;;;-3.39;65.96;100917.96;126434;1314;115051;-69
2023/04/05 02:49:43;;;;;;;60.60;26.70;;;;;;;-3.43;66.03;100916.34;125793;1319;114779;-72
2023/04/05 03:02:21;;;;;;;55.70;23.10;;;;;;;-3.51;66.34;100914.81;126891;1311;126730;-68
2023/04/05 03:06:25;;;;;;;48.80;21.70;;;;;;;-3.52;66.72;100913.73;126316;1316;115348;-70
2023/04/05 03:10:21;;;;;;;49.80;22.10;;;;;;;-3.53;66.79;100911.24;121879;1304;5424349;-71
2023/04/05 03:14:17;;;;;;;;;;;;;;;;;;;;;
2023/04/05 03:18:17;;;;;;;;;;;;;;;;;;;;;
2023/04/05 03:35:18;;;;;;;51.60;21.20;;;;;;;-3.45;67.35;100905.13;125739;1302;638524;-68
2023/04/05 03:39:21;;;;;;;49.50;21.30;;;;;;;-3.44;67.54;100903.21;127860;1284;128980;-68
2023/04/05 03:56:03;;;;;;;;;;;;;;;;;;;;;
2023/04/05 04:00:30;;;;;;;46.50;21.20;;;;;;;-3.46;67.66;100905.80;123149;1287;5467262;-69
2023/04/05 04:04:05;;;;;;;;;;;;;;;;;;;;;
2023/04/05 04:08:06;;;;;;;;;;;;;;;;;;;;;
2023/04/05 04:28:47;;;;;;;49.10;19.60;;;;;;;-3.61;68.12;100916.87;126609;1293;127937;-71
2023/04/05 04:33:13;;;;;;;47.70;19.70;;;;;;;-3.61;68.21;100921.77;126166;1298;116407;-69
2023/04/05 04:36:59;;;;;;;42.90;18.10;;;;;;;-3.58;68.54;100929.51;121779;1299;5450511;-71
2023/04/05 04:40:52;;;;;;;35.40;17.50;;;;;;;-3.56;68.38;100934.61;124296;1325;114820;-69
2023/04/05 04:49:21;;;;;;;41.50;18.10;;;;;;;-3.45;68.60;100937.08;126053;1308;638614;-69
2023/04/05 04:53:24;;;;;;;40.70;17.70;;;;;;;-3.40;68.71;100933.33;127876;1294;128059;-71
2023/04/05 05:01:32;;;;;;;39.20;16.40;;;;;;;-3.26;69.02;100936.70;123065;1290;5388347;-70
2023/04/05 05:09:33;;;;;;;39.20;18.40;;;;;;;-3.10;68.70;100938.90;124510;1331;115011;-71
2023/04/05 05:18:03;;;;;;;39.70;19.10;;;;;;;-2.88;69.15;100941.70;125908;1295;637069;-71
2023/04/05 05:22:05;;;;;;;40.80;17.90;;;;;;;-2.75;69.15;100939.62;127587;1283;128954;-70
2023/04/05 05:26:00;;;;;;;47.10;19.30;;;;;;;-2.59;69.60;100947.03;126673;1292;115321;-71
2023/04/05 05:30:01;;;;;;;46.00;21.60;;;;;;;-2.41;69.69;100947.81;122552;1288;5497232;-69
2023/04/05 05:42:55;;;;;;;35.60;17.10;;;;;;;-1.67;69.70;100944.37;125808;1301;640661;-69
2023/04/05 05:46:33;;;;;;;33.50;15.90;;;;;;;-1.41;69.14;100941.65;127822;1284;128174;-68
2023/04/05 05:50:35;;;;;;;33.00;16.70;;;;;;;-1.17;69.61;100941.70;126346;1300;116619;-69
2023/04/05 05:54:36;;;;;;;32.10;14.20;;;;;;;-0.96;69.41;100941.52;121114;1310;5499062;-69
2023/04/05 06:07:14;;;;;;;31.90;16.20;;;;;;;-0.23;68.56;100940.95;127604;1287;127907;-67
2023/04/05 06:19:45;;;;;;;;;;;;;;;;;;;;;
2023/04/05 06:23:38;;;;;;;;;;;;;;;;;;;;;
2023/04/05 06:32:14;;;;;;;33.30;16.00;;;;;;;2.13;67.25;100916.20;125340;1305;637320;-60
2023/04/05 06:36:16;;;;;;;30.10;15.00;;;;;;;2.64;66.87;100913.78;126549;1296;128831;-60
2023/04/05 06:40:18;;;;;;;27.90;15.60;;;;;;;3.01;66.37;100913.16;125658;1298;115356;-60
2023/04/05 06:43:34;;;;;;;27.00;14.50;;;;;;;3.32;65.85;100913.93;121470;1300;5441407;-62
2023/04/05 06:47:11;;;;;;;28.80;14.50;;;;;;;3.52;65.53;100912.14;124805;1312;114987;-60
2023/04/05 06:50:15;;;;;;;28.00;15.40;;;;;;;3.63;65.03;100907.97;125178;1318;114871;-61
2023/04/05 06:53:40;;;;;;;29.60;16.20;;;;;;;3.76;65.09;100912.59;125284;1305;114866;-62
2023/04/05 06:57:31;;;;;;;;;;;;;;;;;;;;;
2023/04/05 07:00:38;;;;;;;31.00;15.90;;;;;;;4.10;64.47;100913.77;124562;1323;115563;-62
2023/04/05 07:03:56;;;;;;;28.10;14.80;;;;;;;4.22;64.06;100913.61;124498;1314;115059;-58
2023/04/05 07:07:21;;;;;;;25.80;13.90;;;;;;;4.32;63.85;100917.54;124753;1323;114987;-59
2023/04/05 07:10:28;;;;;;;24.80;13.70;;;;;;;4.31;63.57;100918.27;123908;1311;114929;-60
2023/04/05 07:13:59;;;;;;;36.80;17.80;;;;;;;4.30;63.32;100920.05;124943;1323;128867;-60
2023/04/05 07:17:08;;;;;;;34.80;18.90;;;;;;;4.24;62.97;100922.60;125166;1306;115363;-62
2023/04/05 07:20:27;;;;;;;35.10;19.20;;;;;;;4.21;62.86;100927.59;125617;1296;114963;-64
2023/04/05 07:24:02;;;;;;;37.50;18.10;;;;;;;4.19;62.84;100928.68;126323;1297;114903;-62
2023/04/05 07:27:16;;;;;;;42.20;19.70;;;;;;;4.16;62.57;100925.88;126656;1307;114969;-62
2023/04/05 07:30:31;;;;;;;38.90;17.70;;;;;;;4.14;62.49;100926.27;126650;1299;127796;-61
2023/04/05 07:33:58;;;;;;;37.20;18.20;;;;;;;4.11;62.28;100931.95;126662;1285;114865;-62
2023/04/05 07:37:42;;;;;;;;;;;;;;;4.07;62.18;100935.72;126822;1291;114966;-62
2023/04/05 07:40:56;;;;;;;39.30;19.00;;;;;;;4.05;62.67;100930.44;127435;1283;114938;-61
2023/04/05 07:44:28;;;;;;;;;;;;;;;;;;;;;
2023/04/05 07:48:02;;;;;;;32.30;16.30;;;;;;;4.25;62.58;100924.89;127604;1286;128271;-62
2023/04/05 07:51:37;;;;;;;28.70;14.70;;;;;;;4.43;62.51;100923.58;127230;1296;115288;-60
2023/04/05 07:54:45;;;;;;;30.70;15.20;;;;;;;4.58;62.32;100926.55;126895;1302;114826;-61
2023/04/05 07:58:06;;;;;;;34.00;18.30;;;;;;;4.73;62.06;100928.64;127438;1287;114865;-60
2023/04/05 08:02:03;;;;;;;29.90;15.90;;;;;;;4.83;61.67;100931.48;127903;1277;115209;-60
2023/04/05 08:06:09;;;;;;;30.10;15.70;;;;;;;5.01;61.74;100926.60;126632;1299;129320;-61
2023/04/05 08:10:11;;;;;;;30.50;13.70;;;;;;;5.26;61.61;100924.92;125897;1292;115276;-62
2023/04/05 08:18:45;;;;;;;26.60;12.30;;;;;;;5.77;61.12;100914.25;125270;1312;638880;-65
2023/04/05 08:22:37;;;;;;;;;;;;;;;;;;;;;
2023/04/05 08:26:47;;;;;;;;;;;;;;;;;;;;;
2023/04/05 08:30:22;;;;;;;;;;;;;;;;;;;;;
2023/04/05 08:38:49;;;;;;;14.00;9.00;;;;;;;8.22;58.55;100894.55;125627;1299;635833;-62
2023/04/05 08:42:58;;;;;;;17.50;7.50;;;;;;;8.56;57.96;100887.84;127794;1283;127991;-64
2023/04/05 08:47:02;;;;;;;14.10;7.50;;;;;;;8.73;56.77;100888.21;127170;1305;115298;-60
2023/04/05 08:50:26;;;;;;;10.60;6.00;;;;;;;8.72;56.66;100886.64;122533;1289;5420210;-60
2023/04/05 08:54:30;;;;;;;8.30;5.00;;;;;;;8.74;56.23;100883.69;126208;1306;116532;-61
2023/04/05 08:58:31;;;;;;;9.00;4.80;;;;;;;8.85;56.21;100882.82;124968;1320;115324;-64
2023/04/05 09:07:06;;;;;;;9.70;4.70;;;;;;;9.21;55.24;100878.23;125397;1312;638655;-61
2023/04/05 09:11:06;;;;;;;;;;;;;;;;;;;;;
2023/04/05 09:14:31;;;;;;;;;;;;;;;;;;;;;
2023/04/05 09:18:07;;;;;;;;;;;;;;;;;;;;;
2023/04/05 09:21:24;;;;;;;;;;;;;;;;;;;;;
2023/04/05 09:25:00;;;;;;;9.60;3.30;;;;;;;9.46;52.24;100868.77;125752;1310;114957;-63
2023/04/05 09:28:37;;;;;;;;;;;;;;;;;;;;;
2023/04/05 09:32:24;;;;;;;;;;;;;;;;;;;;;
2023/04/05 09:35:47;;;;;;;;;;;;;;;;;;;;;
2023/04/05 09:39:19;;;;;;;;;;;;;;;;;;;;;
2023/04/05 09:43:03;;;;;;;8.60;4.50;;;;;;;9.25;50.91;100862.95;125900;1310;114918;-63
2023/04/05 09:46:40;;;;;;;;;;;;;;;;;;;;;
2023/04/05 09:50:17;;;;;;;;;;;;;;;;;;;;;
2023/04/05 09:58:14;;;;;;;7.90;4.10;;;;;;;9.55;50.50;100852.05;127581;1301;114833;-66
2023/04/05 10:02:17;;;;;;;8.40;5.20;;;;;;;9.53;50.32;100856.06;127505;1299;114853;-73
2023/04/05 10:06:00;;;;;;;7.20;4.70;;;;;;;9.63;50.55;100856.96;126793;1305;127792;-70
2023/04/05 10:10:04;;;;;;;8.10;4.60;;;;;;;9.69;49.97;100852.11;126960;1301;115562;-66
2023/04/05 10:14:05;;;;;;;10.90;5.70;;;;;;;9.65;49.88;100845.47;126104;1317;114906;-68
2023/04/05 10:18:12;;;;;;;8.50;4.90;;;;;;;9.60;50.09;100842.60;124838;1314;114985;-70
2023/04/05 10:22:03;;;;;;;10.60;5.70;;;;;;;9.57;49.37;100834.68;124140;1334;114936;-69
2023/04/05 10:26:23;;;;;;;10.00;5.30;;;;;;;9.56;49.24;100833.67;124194;1316;128311;-70
2023/04/05 10:30:24;;;;;;;15.30;5.40;;;;;;;9.62;49.54;100830.77;124283;1315;115335;-69
2023/04/05 10:34:38;;;;;;;13.60;5.80;;;;;;;9.73;49.51;100827.89;123803;1319;114981;-67
2023/04/05 10:38:42;;;;;;;17.50;6.50;;;;;;;9.92;49.18;100818.76;123837;1322;114896;-66
2023/04/05 10:42:48;;;;;;;12.40;5.50;;;;;;;10.07;48.74;100814.64;123814;1321;114951;-68
2023/04/05 10:46:28;;;;;;;16.60;7.10;;;;;;;10.06;49.11;100809.65;123761;1319;129763;-66
2023/04/05 10:50:18;;;;;;;11.60;6.50;;;;;;;10.09;49.23;100804.88;124149;1321;115329;-66
2023/04/05 10:54:19;;;;;;;7.40;4.40;;;;;;;10.12;48.53;100800.52;124977;1317;115198;-70
2023/04/05 10:58:20;;;;;;;8.70;4.90;;;;;;;9.92;48.08;100802.17;126042;1296;114923;-69
2023/04/05 11:02:22;;;;;;;9.50;4.90;;;;;;;9.78;47.93;100802.69;125340;1311;114918;-66
2023/04/05 11:06:19;;;;;;;8.10;4.40;;;;;;;9.54;47.49;100804.50;124799;1321;129558;-72
2023/04/05 11:10:15;;;;;;;;;;;;;;;;;;;;;
2023/04/05 11:14:37;;;;;;;7.30;4.00;;;;;;;9.38;48.27;100809.71;126499;1289;637414;-67
2023/04/05 11:18:22;;;;;;;8.60;5.10;;;;;;;9.33;48.00;100809.03;128576;1273;129635;-74
2023/04/05 11:22:15;;;;;;;;;;;;;;;;;;;;;
2023/04/05 11:26:07;;;;;;;11.80;4.60;;;;;;;9.07;47.92;100803.67;127737;1293;114942;-73
2023/04/05 11:29:53;;;;;;;;;;;;;;;;;;;;;
2023/04/05 11:33:57;;;;;;;9.10;5.50;;;;;;;9.03;48.03;100799.00;127738;1283;114880;-66
2023/04/05 11:37:55;;;;;;;8.20;4.90;;;;;;;9.19;48.66;100798.98;127425;1289;114729;-65
2023/04/05 11:41:53;;;;;;;8.80;5.40;;;;;;;9.40;48.47;100797.70;126964;1290;129777;-67
2023/04/05 11:45:54;;;;;;;7.90;5.20;;;;;;;9.53;47.97;100797.91;126248;1292;115611;-70
2023/04/05 11:49:56;;;;;;;;;;;;;;;;;;;;;
2023/04/05 11:54:09;;;;;;;9.10;5.90;;;;;;;9.60;48.00;100788.40;126000;1300;637322;-71
2023/04/05 11:58:12;;;;;;;12.00;7.20;;;;;;;9.64;48.09;100793.79;128453;1279;126509;-71
2023/04/05 12:02:08;;;;;;;19.40;8.50;;;;;;;9.68;48.09;100792.92;126814;1287;115266;-67
2023/04/05 12:06:09;;;;;;;34.10;16.50;;;;;;;9.79;48.45;100797.52;124638;1281;5436082;-72
2023/04/05 12:10:00;;;;;;;;;;;;;;;;;;;;;
2023/04/05 12:14:14;;;;;;;9.80;4.80;;;;;;;10.25;48.64;100792.88;126918;1289;116605;-72
2023/04/05 12:18:25;;;;;;;6.70;3.80;;;;;;;10.27;47.97;100790.63;125818;1301;129997;-72
2023/04/05 12:22:15;;;;;;;7.60;4.40;;;;;;;10.19;47.69;100781.81;126133;1295;115804;-67
2023/04/05 12:25:59;;;;;;;;;;;;;;;;;;;;;
2023/04/05 12:30:04;;;;;;;12.40;7.70;;;;;;;10.29;47.62;100774.48;125036;1304;114955;-73
2023/04/05 12:34:14;;;;;;;7.50;4.00;;;;;;;10.25;46.93;100778.92;125158;1309;114947;-70
2023/04/05 12:38:19;;;;;;;10.50;4.30;;;;;;;10.05;47.11;100774.89;125148;1309;130116;-69
2023/04/05 12:42:40;;;;;;;8.00;3.50;;;;;;;9.81;47.13;100779.75;125645;1305;117358;-71
2023/04/05 12:46:48;;;;;;;5.80;3.40;;;;;;;9.54;47.47;100785.96;125770;1318;114916;-67
2023/04/05 12:50:53;;;;;;;7.60;3.80;;;;;;;9.43;48.19;100786.73;126090;1300;114984;-72
2023/04/05 12:54:55;;;;;;;7.70;4.20;;;;;;;9.39;49.00;100788.29;126530;1295;114820;-72
2023/04/05 12:58:34;;;;;;;13.10;4.40;;;;;;;9.38;49.31;100781.52;126162;1298;128280;-70
2023/04/05 13:01:48;;;;;;;7.80;4.40;;;;;;;9.36;49.09;100778.23;126485;1294;114932;-73
2023/04/05 13:05:41;;;;;;;;;;;;;;;;;;;;;
2023/04/05 13:09:14;;;;;;;7.10;4.80;;;;;;;8.88;49.22;100784.02;127021;1289;114914;-74
2023/04/05 13:13:33;;;;;;;12.60;4.50;;;;;;;8.73;50.06;100788.46;127408;1286;114960;-64
2023/04/05 13:17:25;;;;;;;;;;;;;;;;;;;;;
2023/04/05 13:21:10;;;;;;;;;;;;;;;;;;;;;
2023/04/05 13:25:09;;;;;;;9.60;4.90;;;;;;;8.06;51.78;100806.25;126026;1300;114978;-72
2023/04/05 13:29:10;;;;;;;9.30;4.40;;;;;;;7.67;52.25;100805.98;125954;1308;114807;-73
2023/04/05 13:37:35;;;;;;;;;;;;;;;;;;;;;
2023/04/05 13:41:40;;;;;;;5.10;3.20;;;;;;;6.57;54.16;100816.38;126899;1292;128989;-72
2023/04/05 13:49:33;;;;;;;7.80;4.20;;;;;;;6.09;54.95;100787.91;121322;1311;5453094;-73
2023/04/05 13:57:59;;;;;;;7.20;5.30;;;;;;;5.99;56.55;100785.11;125566;1300;638741;-72
2023/04/05 14:06:06;;;;;;;8.20;6.00;;;;;;;6.11;57.38;100781.85;127798;1283;115342;-71
2023/04/05 14:10:06;;;;;;;7.90;5.40;;;;;;;6.15;57.32;100781.02;123087;1291;5354163;-71
2023/04/05 14:13:59;;;;;;;7.50;4.90;;;;;;;6.13;57.32;100780.36;127091;1289;115308;-71
2023/04/05 14:17:38;;;;;;;7.60;4.90;;;;;;;6.09;57.70;100779.40;126287;1312;114964;-73
2023/04/05 14:21:32;;;;;;;4.90;3.50;;;;;;;6.04;57.78;100778.80;125900;1304;114853;-71
2023/04/05 14:25:35;;;;;;;9.30;6.20;;;;;;;5.90;57.63;100780.87;125656;1302;129839;-71
2023/04/05 14:29:37;;;;;;;14.90;10.40;;;;;;;5.76;58.03;100783.13;125566;1302;115384;-73
2023/04/05 14:33:31;;;;;;;;;;;;;;;;;;;;;
2023/04/05 14:37:02;;;;;;;;;;;;;;;;;;;;;
2023/04/05 14:41:06;;;;;;;8.30;5.00;;;;;;;5.56;58.84;100773.96;123527;1338;114922;-72
2023/04/05 14:45:07;;;;;;;10.70;5.60;;;;;;;5.54;58.99;100775.60;124103;1326;127498;-72
2023/04/05 14:53:31;;;;;;;7.20;4.30;;;;;;;5.62;58.94;100771.36;125717;1305;639493;-72
2023/04/05 14:57:34;;;;;;;7.20;3.90;;;;;;;5.61;58.69;100772.10;127796;1285;128793;-72
2023/04/05 15:01:40;;;;;;;8.10;3.40;;;;;;;5.65;58.15;100767.95;127623;1287;115390;-73
2023/04/05 15:05:38;;;;;;;6.80;3.70;;;;;;;5.72;58.44;100763.36;122254;1296;5455347;-73
2023/04/05 15:09:32;;;;;;;5.60;3.90;;;;;;;5.76;57.95;100770.34;125953;1301;115058;-73
2023/04/05 15:13:24;;;;;;;7.60;4.10;;;;;;;5.77;57.62;100766.80;125571;1305;115078;-72
2023/04/05 15:21:55;;;;;;;7.30;4.80;;;;;;;5.81;57.63;100760.15;125596;1308;637609;-69
2023/04/05 15:25:44;;;;;;;8.70;4.90;;;;;;;5.77;57.17;100761.13;127613;1286;127348;-65
2023/04/05 15:29:39;;;;;;;6.60;4.30;;;;;;;5.73;57.02;100758.55;126960;1289;114929;-77
2023/04/05 15:33:21;;;;;;;6.60;4.30;;;;;;;5.71;57.48;100762.31;124134;1286;5505754;-72
2023/04/05 15:37:26;;;;;;;13.50;7.80;;;;;;;5.73;57.12;100758.37;127014;1292;115200;-67
2023/04/05 15:40:57;;;;;;;;;;;;;;;;;;;;;
2023/04/05 15:47:24;;;;;;;13.70;4.40;;;;;;;5.62;57.37;100750.48;125267;1315;114766;-70
2023/04/05 15:51:15;;;;;;;9.20;5.10;;;;;;;5.61;57.78;100752.61;125558;1307;115353;-72
2023/04/05 15:54:49;;;;;;;10.20;5.50;;;;;;;5.60;58.05;100755.98;124176;1316;114910;-72
2023/04/05 15:58:38;;;;;;;5.40;3.90;;;;;;;5.58;57.82;100756.03;124109;1319;115065;-72
2023/04/05 16:02:48;;;;;;;7.80;4.80;;;;;;;5.56;57.72;100753.60;124070;1310;130100;-63
2023/04/05 16:06:32;;;;;;;7.40;4.50;;;;;;;5.55;57.90;100755.41;124214;1315;116477;-73
2023/04/05 16:14:46;;;;;;;9.60;4.60;;;;;;;5.52;57.23;100750.85;125964;1294;636806;-70
2023/04/05 16:18:19;;;;;;;;;;;;;;;;;;;;;
2023/04/05 16:22:26;;;;;;;7.50;4.30;;;;;;;5.43;57.63;100758.48;129041;1276;115280;-70
2023/04/05 16:26:22;;;;;;;11.60;8.30;;;;;;;5.35;57.80;100761.12;128543;1277;114903;-65
2023/04/05 16:30:25;;;;;;;20.20;12.20;;;;;;;5.26;57.88;100759.36;124131;1294;114875;-73
2023/04/05 16:34:25;;;;;;;;;;;;;;;;;;;;;
2023/04/05 16:38:27;;;;;;;8.20;5.20;;;;;;;5.07;57.91;100757.42;125804;1305;115686;-68
2023/04/05 16:46:53;;;;;;;9.00;5.20;;;;;;;4.91;57.83;100756.84;126610;1292;638910;-71
2023/04/05 16:50:59;;;;;;;10.40;5.40;;;;;;;4.82;57.93;100761.25;127795;1279;128123;-67
2023/04/05 16:55:16;;;;;;;11.60;6.00;;;;;;;4.73;57.79;100768.14;127338;1290;115196;-66
2023/04/05 16:59:13;;;;;;;;;;;;;;;;;;;;;
2023/04/05 17:03:15;;;;;;;44.30;23.70;;;;;;;4.46;58.48;100770.91;125066;1311;114886;-65
2023/04/05 17:06:15;;;;;;;35.00;18.50;;;;;;;4.34;58.60;100775.52;124149;1317;114979;-71
2023/04/05 17:09:15;;;;;;;25.70;14.40;;;;;;;4.25;58.75;100770.17;124204;1317;116503;-67
2023/04/05 17:12:57;;;;;;;22.10;10.80;;;;;;;4.16;58.85;100774.91;124201;1327;115230;-71
2023/04/05 17:21:31;;;;;;;;;;;;;;;;;;;;;
2023/04/05 17:34:04;;;;;;;16.00;8.80;;;;;;;3.52;60.09;100781.11;121518;1308;5631857;-65
2023/04/05 17:46:15;;;;;;;15.60;9.20;;;;;;;3.16;60.22;100798.13;125658;1303;640159;-67
2023/04/05 17:50:15;;;;;;;21.80;10.70;;;;;;;3.01;60.88;100802.87;127696;1285;127884;-65
2023/04/05 17:54:19;;;;;;;20.70;10.10;;;;;;;2.87;61.34;100814.29;126633;1311;115297;-70
2023/04/05 17:58:21;;;;;;;20.00;11.50;;;;;;;2.75;61.78;100820.59;122093;1302;5493856;-66
2023/04/05 18:02:10;;;;;;;;;;;;;;;;;;;;;
2023/04/05 18:06:44;;;;;;;24.50;12.10;;;;;;;2.57;62.29;100829.19;125868;1309;637471;-71
2023/04/05 18:10:11;;;;;;;21.40;12.60;;;;;;;2.47;62.50;100836.33;129037;1274;127749;-70
2023/04/05 18:14:14;;;;;;;24.60;12.10;;;;;;;2.39;62.72;100838.52;128110;1290;115294;-71
2023/04/05 18:17:52;;;;;;;28.70;13.00;;;;;;;2.29;62.68;100842.27;126959;1294;114842;-69
2023/04/05 18:21:24;;;;;;;;;;;;;;;;;;;;;
2023/04/05 18:25:27;;;;;;;25.90;13.80;;;;;;;2.12;63.10;100849.61;126907;1304;114846;-71
2023/04/05 18:29:26;;;;;;;;;;;;;;;;;;;;;
2023/04/05 18:33:21;;;;;;;;;;;;;;;;;;;;;
2023/04/05 18:37:22;;;;;;;;;;;;;;;;;;;;;
2023/04/05 18:41:26;;;;;;;;;;;;;;;;;;;;;
2023/04/05 18:47:04;;;;;;;30.50;15.30;;;;;;;1.69;64.52;100866.71;127503;1285;652796;-73
2023/04/05 18:54:19;;;;;;;;;;;;;;;;;;;;;
2023/04/05 19:18:03;;;;;;;39.50;23.20;;;;;;;1.27;66.70;100871.77;126011;1317;114928;-72
2023/04/05 19:25:49;;;;;;;45.90;27.20;;;;;;;1.20;66.97;100871.08;125547;1305;640804;-70
2023/04/05 19:28:51;;;;;;;49.70;27.60;;;;;;;1.14;67.05;100873.02;128677;1277;128212;-76
2023/04/05 19:32:55;;;;;;;56.50;32.10;;;;;;;1.09;67.29;100873.38;128905;1279;114908;-71
2023/04/05 19:36:46;;;;;;;45.40;25.90;;;;;;;1.02;67.18;100871.45;127939;1282;114780;-67
2023/04/05 19:40:31;;;;;;;45.50;24.80;;;;;;;0.95;67.55;100871.29;123199;1290;5448174;-70
2023/04/05 19:44:07;;;;;;;47.30;26.10;;;;;;;0.90;67.44;100874.46;126783;1293;114950;-70
2023/04/05 19:48:00;;;;;;;50.10;29.20;;;;;;;0.84;67.81;100871.45;126809;1293;114941;-73
2023/04/05 19:52:01;;;;;;;;;;;;;;;;;;;;;
2023/04/05 19:56:10;;;;;;;;;;;;;;;;;;;;;
2023/04/05 20:00:51;;;;;;;64.30;36.40;;;;;;;0.65;68.04;100865.49;125588;1308;639971;-72
2023/04/05 20:04:53;;;;;;;71.50;37.50;;;;;;;0.55;68.22;100864.08;128287;1282;129130;-65
2023/04/05 20:08:01;;;;;;;65.00;36.40;;;;;;;0.48;68.26;100865.13;128293;1288;114877;-71
2023/04/05 20:12:04;;;;;;;60.40;32.70;;;;;;;0.43;68.37;100865.63;128499;1285;114830;-72
2023/04/05 20:16:08;;;;;;;63.50;33.30;;;;;;;0.36;68.29;100865.81;123402;1294;115191;-65
2023/04/05 20:19:57;;;;;;;;;;;;;;;;;;;;;
2023/04/05 20:23:50;;;;;;;;;;;;;;;;;;;;;
2023/04/05 20:27:56;;;;;;;67.10;39.90;;;;;;;0.13;68.46;100856.98;125690;1313;130483;-70
2023/04/05 20:31:37;;;;;;;;;;;;;;;;;;;;;
2023/04/05 20:35:40;;;;;;;68.30;36.20;;;;;;;-0.04;68.68;100851.51;125681;1315;114797;-71
2023/04/05 20:39:34;;;;;;;58.80;32.50;;;;;;;-0.13;68.87;100851.29;124489;1314;114880;-71
2023/04/05 20:43:34;;;;;;;56.60;33.40;;;;;;;-0.21;69.02;100846.36;124415;1314;115102;-68
2023/04/05 20:51:50;;;;;;;;;;;;;;;;;;;;;
2023/04/05 20:55:47;;;;;;;;;;;;;;;;;;;;;
2023/04/05 20:59:43;;;;;;;;;;;;;;;;;;;;;
2023/04/05 21:03:46;;;;;;;67.80;37.60;;;;;;;-0.56;69.49;100837.96;121796;1304;5459616;-72
2023/04/05 21:07:38;;;;;;;;;;;;;;;;;;;;;
2023/04/05 21:12:03;;;;;;;81.20;43.20;;;;;;;-0.65;69.93;100843.89;125271;1304;638684;-76
2023/04/05 21:16:03;;;;;;;;;;;;;;;;;;;;;
2023/04/05 21:20:07;;;;;;;71.70;37.80;;;;;;;-0.79;69.99;100840.48;127204;1302;114928;-67
2023/04/05 21:23:09;;;;;;;69.40;36.20;;;;;;;-0.84;70.32;100837.48;124553;1296;5433295;-68
2023/04/05 21:27:27;;;;;;;70.90;37.70;;;;;;;-0.88;70.50;100843.23;126202;1297;114854;-71
2023/04/05 21:31:29;;;;;;;67.00;36.50;;;;;;;-0.93;70.55;100840.92;124783;1329;114817;-73
2023/04/05 21:39:49;;;;;;;109.90;60.10;;;;;;;-0.99;71.14;100847.89;125807;1294;641081;-70
2023/04/05 21:43:23;;;;;;;104.70;57.60;;;;;;;-1.02;71.60;100850.67;128001;1281;128904;-67
2023/04/05 21:47:27;;;;;;;105.30;59.60;;;;;;;-1.03;71.80;100850.84;128450;1289;115135;-68
2023/04/05 21:51:54;;;;;;;112.00;61.30;;;;;;;-1.05;71.85;100850.29;127259;1289;114896;-65
2023/04/05 21:55:33;;;;;;;149.20;78.60;;;;;;;-1.09;71.40;100844.50;124179;1287;114772;-70
2023/04/05 21:59:35;;;;;;;103.60;56.80;;;;;;;-1.11;72.20;100846.05;126653;1295;114881;-67
2023/04/05 22:07:58;;;;;;;100.30;55.70;;;;;;;-1.13;71.60;100839.55;125202;1300;638614;-70
2023/04/05 22:12:01;;;;;;;107.20;56.90;;;;;;;-1.19;71.66;100842.48;127565;1284;127703;-69
2023/04/05 22:16:03;;;;;;;112.70;58.30;;;;;;;-1.25;72.44;100845.77;126133;1301;115411;-72
2023/04/05 22:20:04;;;;;;;134.50;62.30;;;;;;;-1.27;72.56;100850.14;121646;1322;5468183;-70
2023/04/05 22:28:30;;;;;;;131.20;63.90;;;;;;;-1.30;72.38;100850.48;125416;1304;636739;-70
2023/04/05 22:32:33;;;;;;;104.60;57.50;;;;;;;-1.37;71.50;100851.63;128381;1275;127997;-68
2023/04/05 22:36:27;;;;;;;;;;;;;;;;;;;;;
2023/04/05 22:40:28;;;;;;;;;;;;;;;;;;;;;
2023/04/05 22:44:31;;;;;;;125.90;63.00;;;;;;;-1.55;71.90;100848.50;126940;1289;114871;-69
2023/04/05 22:53:05;;;;;;;129.70;70.80;;;;;;;-1.63;72.17;100850.36;126378;1304;641935;-69
2023/04/05 22:57:09;;;;;;;125.90;65.90;;;;;;;-1.68;72.79;100852.25;127676;1304;129246;-66
2023/04/05 23:05:14;;;;;;;150.50;76.30;;;;;;;-1.77;71.97;100852.49;122603;1291;5424225;-69
2023/04/05 23:17:48;;;;;;;;;;;;;;;;;;;;;
2023/04/05 23:21:37;;;;;;;170.00;86.40;;;;;;;-1.96;72.75;100847.91;127179;1288;128343;-68
2023/04/05 23:25:42;;;;;;;188.00;93.00;;;;;;;-2.01;72.37;100849.11;126529;1308;116455;-67
2023/04/05 23:29:43;;;;;;;179.10;87.40;;;;;;;-2.04;72.93;100852.40;121969;1297;5442267;-68
2023/04/05 23:38:17;;;;;;;180.00;91.90;;;;;;;-2.10;72.36;100847.09;125644;1299;638910;-66
2023/04/05 23:42:17;;;;;;;;;;;;;;;;;;;;;
2023/04/05 23:46:21;;;;;;;182.30;90.60;;;;;;;-2.19;72.73;100849.77;126827;1309;115230;-68
2023/04/05 23:50:25;;;;;;;174.10;86.70;;;;;;;-2.24;72.55;100845.89;122300;1298;5436110;-69
2023/04/05 23:54:26;;;;;;;180.20;90.70;;;;;;;-2.30;72.71;100841.26;125253;1315;114916;-69
2023/04/05 23:58:28;;;;;;;173.60;86.80;;;;;;;-2.34;72.64;100836.84;125026;1310;114799;-65
